sensor_id;sensor_type;location;lat;lon;timestamp;pressure;altitude;pressure_sealevel;temperature;humidity
62524;BME280;53689;56.878;60.672;2023-04-06T00:00:18;97568.50;;;23.16;17.23
62524;BME280;53689;56.878;60.672;2023-04-06T00:02:45;97563.81;;;23.30;16.75
62524;BME280;53689;56.878;60.672;2023-04-06T00:05:12;97567.25;;;23.37;16.79
62524;BME280;53689;56.878;60.672;2023-04-06T00:07:39;97575.22;;;23.32;16.93
62524;BME280;53689;56.878;60.672;2023-04-06T00:10:07;97565.47;;;23.31;17.42
62524;BME280;53689;56.878;60.672;2023-04-06T00:12:34;97567.03;;;23.20;17.43
62524;BME280;53689;56.878;60.672;2023-04-06T00:15:02;97574.75;;;23.17;17.42
62524;BME280;53689;56.878;60.672;2023-04-06T00:17:30;97577.75;;;23.08;17.26
62524;BME280;53689;56.878;60.672;2023-04-06T00:19:58;97571.13;;;23.23;17.01
62524;BME280;53689;56.878;60.672;2023-04-06T00:22:25;97572.06;;;23.17;16.99
62524;BME280;53689;56.878;60.672;2023-04-06T00:24:52;97579.41;;;23.28;17.32
62524;BME280;53689;56.878;60.672;2023-04-06T00:27:19;97578.38;;;23.29;17.10
62524;BME280;53689;56.878;60.672;2023-04-06T00:29:47;97585.34;;;23.37;17.29
62524;BME280;53689;56.878;60.672;2023-04-06T00:32:14;97584.06;;;23.39;17.14
62524;BME280;53689;56.878;60.672;2023-04-06T00:34:43;97575.28;;;23.44;16.78
62524;BME280;53689;56.878;60.672;2023-04-06T00:37:10;97578.34;;;23.48;17.41
62524;BME280;53689;56.878;60.672;2023-04-06T00:39:38;97572.28;;;23.52;17.00
62524;BME280;53689;56.878;60.672;2023-04-06T00:42:07;97572.06;;;23.54;16.91
62524;BME280;53689;56.878;60.672;2023-04-06T00:44:36;97579.69;;;23.57;16.90
62524;BME280;53689;56.878;60.672;2023-04-06T00:47:04;97578.63;;;23.58;17.27
62524;BME280;53689;56.878;60.672;2023-04-06T00:49:31;97583.66;;;23.54;17.09
62524;BME280;53689;56.878;60.672;2023-04-06T00:52:01;97579.69;;;23.57;17.00
62524;BME280;53689;56.878;60.672;2023-04-06T00:54:28;97585.56;;;23.54;16.96
62524;BME280;53689;56.878;60.672;2023-04-06T00:56:57;97587.22;;;23.55;17.40
62524;BME280;53689;56.878;60.672;2023-04-06T00:59:27;97584.25;;;23.56;16.77
62524;BME280;53689;56.878;60.672;2023-04-06T01:01:55;97592.75;;;23.60;16.77
62524;BME280;53689;56.878;60.672;2023-04-06T01:04:39;97592.16;;;23.58;16.91
62524;BME280;53689;56.878;60.672;2023-04-06T01:07:15;97597.56;;;23.58;17.04
62524;BME280;53689;56.878;60.672;2023-04-06T01:09:55;97590.50;;;23.57;17.34
62524;BME280;53689;56.878;60.672;2023-04-06T01:12:27;97595.75;;;23.52;17.32
62524;BME280;53689;56.878;60.672;2023-04-06T01:14:56;97594.09;;;23.51;17.58
62524;BME280;53689;56.878;60.672;2023-04-06T01:17:25;97597.84;;;23.50;17.27
62524;BME280;53689;56.878;60.672;2023-04-06T01:19:56;97596.38;;;23.54;17.03
62524;BME280;53689;56.878;60.672;2023-04-06T01:22:30;97599.06;;;23.54;17.35
62524;BME280;53689;56.878;60.672;2023-04-06T01:25:02;97596.38;;;23.54;17.02
62524;BME280;53689;56.878;60.672;2023-04-06T01:27:37;97603.41;;;23.55;17.20
62524;BME280;53689;56.878;60.672;2023-04-06T01:30:11;97609.25;;;23.52;17.73
62524;BME280;53689;56.878;60.672;2023-04-06T01:32:43;97610.47;;;23.56;17.55
62524;BME280;53689;56.878;60.672;2023-04-06T01:35:13;97607.63;;;23.51;17.77
62524;BME280;53689;56.878;60.672;2023-04-06T01:37:50;97610.56;;;23.49;17.21
62524;BME280;53689;56.878;60.672;2023-04-06T01:40:25;97608.53;;;23.45;17.53
62524;BME280;53689;56.878;60.672;2023-04-06T01:42:52;97616.56;;;23.51;17.71
62524;BME280;53689;56.878;60.672;2023-04-06T01:45:28;97614.91;;;23.50;17.93
62524;BME280;53689;56.878;60.672;2023-04-06T01:48:01;97615.59;;;23.46;17.84
62524;BME280;53689;56.878;60.672;2023-04-06T01:50:29;97617.22;;;23.47;17.55
62524;BME280;53689;56.878;60.672;2023-04-06T01:52:58;97622.41;;;23.48;17.30
62524;BME280;53689;56.878;60.672;2023-04-06T01:55:27;97618.03;;;23.47;19.55
62524;BME280;53689;56.878;60.672;2023-04-06T01:58:26;97621.00;;;23.46;19.80
62524;BME280;53689;56.878;60.672;2023-04-06T02:00:53;97617.63;;;23.50;18.35
62524;BME280;53689;56.878;60.672;2023-04-06T02:03:21;97626.22;;;23.59;19.51
62524;BME280;53689;56.878;60.672;2023-04-06T02:05:56;97627.78;;;23.86;18.55
62524;BME280;53689;56.878;60.672;2023-04-06T02:08:31;97629.81;;;24.21;19.16
62524;BME280;53689;56.878;60.672;2023-04-06T02:10:58;97634.47;;;24.14;18.05
62524;BME280;53689;56.878;60.672;2023-04-06T02:13:33;97627.38;;;23.33;18.15
62524;BME280;53689;56.878;60.672;2023-04-06T02:16:00;97633.19;;;22.85;19.08
62524;BME280;53689;56.878;60.672;2023-04-06T02:18:28;97629.69;;;22.59;19.18
62524;BME280;53689;56.878;60.672;2023-04-06T02:20:55;97625.53;;;22.57;18.97
62524;BME280;53689;56.878;60.672;2023-04-06T02:23:22;97626.66;;;22.49;19.04
62524;BME280;53689;56.878;60.672;2023-04-06T02:25:50;97631.09;;;22.30;19.60
62524;BME280;53689;56.878;60.672;2023-04-06T02:28:18;97640.19;;;22.36;19.36
62524;BME280;53689;56.878;60.672;2023-04-06T02:30:45;97640.28;;;22.22;19.38
62524;BME280;53689;56.878;60.672;2023-04-06T02:33:13;97644.59;;;22.30;19.15
62524;BME280;53689;56.878;60.672;2023-04-06T02:35:44;97641.75;;;22.18;19.60
62524;BME280;53689;56.878;60.672;2023-04-06T02:38:11;97642.38;;;22.20;19.72
62524;BME280;53689;56.878;60.672;2023-04-06T02:40:38;97647.69;;;22.34;19.38
62524;BME280;53689;56.878;60.672;2023-04-06T02:43:19;97646.41;;;22.36;19.44
62524;BME280;53689;56.878;60.672;2023-04-06T02:45:49;97641.34;;;22.53;19.30
62524;BME280;53689;56.878;60.672;2023-04-06T02:48:18;97652.16;;;22.47;19.44
62524;BME280;53689;56.878;60.672;2023-04-06T02:50:45;97642.28;;;22.66;18.81
62524;BME280;53689;56.878;60.672;2023-04-06T02:53:12;97648.03;;;22.44;19.11
62524;BME280;53689;56.878;60.672;2023-04-06T02:55:39;97651.22;;;22.27;19.57
62524;BME280;53689;56.878;60.672;2023-04-06T02:58:07;97646.22;;;21.99;19.53
62524;BME280;53689;56.878;60.672;2023-04-06T03:00:45;97649.44;;;22.14;19.71
62524;BME280;53689;56.878;60.672;2023-04-06T03:03:12;97653.19;;;21.74;20.21
62524;BME280;53689;56.878;60.672;2023-04-06T03:05:41;97654.28;;;22.06;19.59
62524;BME280;53689;56.878;60.672;2023-04-06T03:08:09;97658.50;;;22.27;19.55
62524;BME280;53689;56.878;60.672;2023-04-06T03:10:44;97658.50;;;21.88;19.74
62524;BME280;53689;56.878;60.672;2023-04-06T03:13:13;97664.00;;;21.68;20.29
62524;BME280;53689;56.878;60.672;2023-04-06T03:16:02;97656.00;;;21.93;19.97
62524;BME280;53689;56.878;60.672;2023-04-06T03:18:29;97667.16;;;21.24;20.41
62524;BME280;53689;56.878;60.672;2023-04-06T03:20:57;97662.03;;;21.88;19.63
62524;BME280;53689;56.878;60.672;2023-04-06T03:23:30;97658.81;;;21.59;20.44
62524;BME280;53689;56.878;60.672;2023-04-06T03:26:00;97660.72;;;21.45;20.57
62524;BME280;53689;56.878;60.672;2023-04-06T03:28:28;97659.28;;;21.36;20.38
62524;BME280;53689;56.878;60.672;2023-04-06T03:30:58;97662.13;;;21.48;20.29
62524;BME280;53689;56.878;60.672;2023-04-06T03:34:02;97668.16;;;21.37;20.47
62524;BME280;53689;56.878;60.672;2023-04-06T03:36:33;97669.28;;;20.88;20.77
62524;BME280;53689;56.878;60.672;2023-04-06T03:39:02;97663.88;;;21.15;20.52
62524;BME280;53689;56.878;60.672;2023-04-06T03:41:33;97658.94;;;20.92;20.82
62524;BME280;53689;56.878;60.672;2023-04-06T03:44:10;97667.41;;;20.82;21.27
62524;BME280;53689;56.878;60.672;2023-04-06T03:46:37;97668.44;;;20.81;21.12
62524;BME280;53689;56.878;60.672;2023-04-06T03:49:06;97670.06;;;20.62;20.89
62524;BME280;53689;56.878;60.672;2023-04-06T03:51:34;97673.00;;;20.94;20.63
62524;BME280;53689;56.878;60.672;2023-04-06T03:54:01;97673.41;;;20.71;21.00
62524;BME280;53689;56.878;60.672;2023-04-06T03:56:28;97680.31;;;20.04;22.36
62524;BME280;53689;56.878;60.672;2023-04-06T03:58:55;97679.19;;;20.95;20.70
62524;BME280;53689;56.878;60.672;2023-04-06T04:01:23;97674.00;;;21.27;20.25
62524;BME280;53689;56.878;60.672;2023-04-06T04:03:50;97669.41;;;21.47;20.09
62524;BME280;53689;56.878;60.672;2023-04-06T04:06:19;97684.94;;;21.45;20.12
62524;BME280;53689;56.878;60.672;2023-04-06T04:08:46;97688.22;;;21.68;20.06
62524;BME280;53689;56.878;60.672;2023-04-06T04:11:13;97691.28;;;21.85;19.61
62524;BME280;53689;56.878;60.672;2023-04-06T04:13:40;97685.59;;;22.00;20.03
62524;BME280;53689;56.878;60.672;2023-04-06T04:16:08;97695.56;;;21.99;19.75
62524;BME280;53689;56.878;60.672;2023-04-06T04:18:35;97692.25;;;21.97;20.16
62524;BME280;53689;56.878;60.672;2023-04-06T04:21:03;97697.47;;;21.85;19.88
62524;BME280;53689;56.878;60.672;2023-04-06T04:23:31;97691.03;;;21.93;19.97
62524;BME280;53689;56.878;60.672;2023-04-06T04:25:59;97698.94;;;21.81;20.00
62524;BME280;53689;56.878;60.672;2023-04-06T04:28:26;97703.06;;;21.90;20.11
62524;BME280;53689;56.878;60.672;2023-04-06T04:30:55;97712.16;;;21.96;20.26
62524;BME280;53689;56.878;60.672;2023-04-06T04:33:23;97710.03;;;22.05;19.77
62524;BME280;53689;56.878;60.672;2023-04-06T04:35:53;97718.91;;;21.33;20.79
62524;BME280;53689;56.878;60.672;2023-04-06T04:38:23;97718.13;;;21.32;20.93
62524;BME280;53689;56.878;60.672;2023-04-06T04:40:55;97721.84;;;21.25;20.77
62524;BME280;53689;56.878;60.672;2023-04-06T04:43:23;97714.44;;;22.38;20.53
62524;BME280;53689;56.878;60.672;2023-04-06T04:45:50;97718.91;;;22.58;20.10
62524;BME280;53689;56.878;60.672;2023-04-06T04:48:33;97710.50;;;22.73;19.75
62524;BME280;53689;56.878;60.672;2023-04-06T04:51:03;97717.88;;;22.20;20.48
62524;BME280;53689;56.878;60.672;2023-04-06T04:53:45;97714.28;;;21.87;21.08
62524;BME280;53689;56.878;60.672;2023-04-06T04:56:20;97723.50;;;22.57;20.35
62524;BME280;53689;56.878;60.672;2023-04-06T04:58:52;97722.16;;;22.73;20.16
62524;BME280;53689;56.878;60.672;2023-04-06T05:01:20;97729.13;;;22.03;20.56
62524;BME280;53689;56.878;60.672;2023-04-06T05:03:48;97731.16;;;22.15;20.39
62524;BME280;53689;56.878;60.672;2023-04-06T05:06:16;97735.88;;;22.26;21.00
62524;BME280;53689;56.878;60.672;2023-04-06T05:08:44;97733.84;;;22.61;20.22
62524;BME280;53689;56.878;60.672;2023-04-06T05:11:11;97735.41;;;22.75;20.01
62524;BME280;53689;56.878;60.672;2023-04-06T05:13:45;97735.53;;;22.87;19.66
62524;BME280;53689;56.878;60.672;2023-04-06T05:16:17;97743.03;;;22.85;20.00
62524;BME280;53689;56.878;60.672;2023-04-06T05:18:45;97744.13;;;22.77;19.96
62524;BME280;53689;56.878;60.672;2023-04-06T05:21:12;97741.75;;;22.10;20.49
62524;BME280;53689;56.878;60.672;2023-04-06T05:24:00;97739.56;;;21.80;20.83
62524;BME280;53689;56.878;60.672;2023-04-06T05:26:28;97743.06;;;22.39;20.63
62524;BME280;53689;56.878;60.672;2023-04-06T05:29:02;97741.41;;;21.93;20.94
62524;BME280;53689;56.878;60.672;2023-04-06T05:31:34;97746.56;;;22.01;21.13
62524;BME280;53689;56.878;60.672;2023-04-06T05:34:02;97744.69;;;22.54;20.81
62524;BME280;53689;56.878;60.672;2023-04-06T05:36:32;97744.59;;;22.67;20.64
62524;BME280;53689;56.878;60.672;2023-04-06T05:39:05;97748.56;;;22.90;19.93
62524;BME280;53689;56.878;60.672;2023-04-06T05:41:43;97759.38;;;22.90;20.53
62524;BME280;53689;56.878;60.672;2023-04-06T05:44:13;97760.22;;;22.91;20.65
62524;BME280;53689;56.878;60.672;2023-04-06T05:46:46;97758.56;;;22.90;20.47
62524;BME280;53689;56.878;60.672;2023-04-06T05:49:15;97760.31;;;22.77;20.41
62524;BME280;53689;56.878;60.672;2023-04-06T05:51:43;97755.88;;;22.90;20.55
62524;BME280;53689;56.878;60.672;2023-04-06T05:54:10;97760.22;;;22.91;22.77
62524;BME280;53689;56.878;60.672;2023-04-06T05:56:38;97767.59;;;23.02;21.04
62524;BME280;53689;56.878;60.672;2023-04-06T05:59:09;97768.50;;;22.96;21.02
62524;BME280;53689;56.878;60.672;2023-04-06T06:01:38;97761.25;;;22.90;20.96
62524;BME280;53689;56.878;60.672;2023-04-06T06:04:05;97765.25;;;23.12;20.45
62524;BME280;53689;56.878;60.672;2023-04-06T06:06:35;97765.69;;;23.09;20.45
62524;BME280;53689;56.878;60.672;2023-04-06T06:09:22;97765.81;;;22.96;20.91
62524;BME280;53689;56.878;60.672;2023-04-06T06:12:13;97768.34;;;22.52;21.46
62524;BME280;53689;56.878;60.672;2023-04-06T06:14:41;97771.00;;;22.13;21.68
62524;BME280;53689;56.878;60.672;2023-04-06T06:17:10;97776.25;;;21.81;22.14
62524;BME280;53689;56.878;60.672;2023-04-06T06:19:38;97785.53;;;21.98;23.32
62524;BME280;53689;56.878;60.672;2023-04-06T06:22:07;97788.63;;;22.02;22.56
62524;BME280;53689;56.878;60.672;2023-04-06T06:24:38;97788.84;;;22.07;22.15
62524;BME280;53689;56.878;60.672;2023-04-06T06:27:06;97802.19;;;21.01;22.57
62524;BME280;53689;56.878;60.672;2023-04-06T06:29:35;97793.91;;;21.36;22.56
62524;BME280;53689;56.878;60.672;2023-04-06T06:32:03;97796.53;;;22.03;22.09
62524;BME280;53689;56.878;60.672;2023-04-06T06:34:33;97808.81;;;21.79;22.80
62524;BME280;53689;56.878;60.672;2023-04-06T06:37:03;97802.00;;;22.49;21.54
62524;BME280;53689;56.878;60.672;2023-04-06T06:39:30;97804.06;;;22.40;21.56
62524;BME280;53689;56.878;60.672;2023-04-06T06:41:57;97817.50;;;21.07;22.74
62524;BME280;53689;56.878;60.672;2023-04-06T06:44:42;97818.78;;;21.25;22.70
62524;BME280;53689;56.878;60.672;2023-04-06T06:47:10;97822.06;;;21.81;21.86
62524;BME280;53689;56.878;60.672;2023-04-06T06:49:39;97820.19;;;22.47;21.59
62524;BME280;53689;56.878;60.672;2023-04-06T06:52:07;97824.81;;;22.40;22.75
62524;BME280;53689;56.878;60.672;2023-04-06T06:54:35;97812.38;;;22.32;24.04
62524;BME280;53689;56.878;60.672;2023-04-06T06:57:02;97811.59;;;22.18;22.79
62524;BME280;53689;56.878;60.672;2023-04-06T06:59:30;97827.00;;;21.97;22.39
62524;BME280;53689;56.878;60.672;2023-04-06T07:01:57;97822.59;;;22.23;22.69
62524;BME280;53689;56.878;60.672;2023-04-06T07:04:25;97835.75;;;21.86;22.64
62524;BME280;53689;56.878;60.672;2023-04-06T07:06:54;97830.00;;;22.35;22.06
62524;BME280;53689;56.878;60.672;2023-04-06T07:09:21;97838.78;;;22.16;22.53
62524;BME280;53689;56.878;60.672;2023-04-06T07:11:49;97839.50;;;21.78;22.36
62524;BME280;53689;56.878;60.672;2023-04-06T07:14:16;97838.16;;;22.14;21.76
62524;BME280;53689;56.878;60.672;2023-04-06T07:16:44;97833.72;;;22.40;21.85
62524;BME280;53689;56.878;60.672;2023-04-06T07:19:11;97840.69;;;22.68;21.65
62524;BME280;53689;56.878;60.672;2023-04-06T07:21:38;97847.69;;;22.76;23.19
62524;BME280;53689;56.878;60.672;2023-04-06T07:24:07;97851.66;;;21.00;23.05
62524;BME280;53689;56.878;60.672;2023-04-06T07:26:35;97845.66;;;21.04;23.90
62524;BME280;53689;56.878;60.672;2023-04-06T07:29:04;97845.53;;;21.73;24.26
62524;BME280;53689;56.878;60.672;2023-04-06T07:31:31;97858.75;;;21.95;23.43
62524;BME280;53689;56.878;60.672;2023-04-06T07:33:58;97856.78;;;22.36;22.27
62524;BME280;53689;56.878;60.672;2023-04-06T07:36:26;97850.09;;;22.45;22.60
62524;BME280;53689;56.878;60.672;2023-04-06T07:38:53;97859.25;;;22.51;22.04
62524;BME280;53689;56.878;60.672;2023-04-06T07:41:23;97857.25;;;22.13;22.65
62524;BME280;53689;56.878;60.672;2023-04-06T07:43:50;97858.03;;;22.34;22.35
62524;BME280;53689;56.878;60.672;2023-04-06T07:46:18;97865.38;;;21.86;22.73
62524;BME280;53689;56.878;60.672;2023-04-06T07:48:45;97875.97;;;21.54;22.82
62524;BME280;53689;56.878;60.672;2023-04-06T07:51:12;97872.66;;;21.72;22.31
62524;BME280;53689;56.878;60.672;2023-04-06T07:53:41;97868.50;;;21.49;23.53
62524;BME280;53689;56.878;60.672;2023-04-06T07:56:11;97872.00;;;21.36;23.08
62524;BME280;53689;56.878;60.672;2023-04-06T07:58:40;97866.78;;;22.09;25.14
62524;BME280;53689;56.878;60.672;2023-04-06T08:01:07;97858.97;;;22.66;22.44
62524;BME280;53689;56.878;60.672;2023-04-06T08:03:35;97863.72;;;22.71;21.67
62524;BME280;53689;56.878;60.672;2023-04-06T08:06:02;97865.22;;;22.60;21.89
62524;BME280;53689;56.878;60.672;2023-04-06T08:08:30;97866.88;;;22.61;23.69
62524;BME280;53689;56.878;60.672;2023-04-06T08:10:57;97876.41;;;22.64;22.07
62524;BME280;53689;56.878;60.672;2023-04-06T08:13:27;97881.28;;;22.28;21.69
62524;BME280;53689;56.878;60.672;2023-04-06T08:15:56;97863.78;;;22.51;21.64
62524;BME280;53689;56.878;60.672;2023-04-06T08:18:24;97876.66;;;22.55;21.45
62524;BME280;53689;56.878;60.672;2023-04-06T08:20:51;97879.53;;;22.61;21.57
62524;BME280;53689;56.878;60.672;2023-04-06T08:23:18;97889.50;;;22.60;21.61
62524;BME280;53689;56.878;60.672;2023-04-06T08:25:45;97881.31;;;22.80;21.97
62524;BME280;53689;56.878;60.672;2023-04-06T08:28:12;97877.56;;;22.81;20.76
62524;BME280;53689;56.878;60.672;2023-04-06T08:30:39;97857.19;;;22.92;20.24
62524;BME280;53689;56.878;60.672;2023-04-06T08:33:08;97892.06;;;22.14;22.14
62524;BME280;53689;56.878;60.672;2023-04-06T08:35:36;97898.75;;;22.12;21.96
62524;BME280;53689;56.878;60.672;2023-04-06T08:38:03;97891.69;;;21.97;22.29
62524;BME280;53689;56.878;60.672;2023-04-06T08:40:35;97899.16;;;22.15;22.39
62524;BME280;53689;56.878;60.672;2023-04-06T08:43:02;97893.22;;;22.66;21.83
62524;BME280;53689;56.878;60.672;2023-04-06T08:45:30;97892.03;;;22.55;21.88
62524;BME280;53689;56.878;60.672;2023-04-06T08:47:57;97896.16;;;22.44;21.87
62524;BME280;53689;56.878;60.672;2023-04-06T08:50:27;97901.84;;;22.02;22.50
62524;BME280;53689;56.878;60.672;2023-04-06T08:52:54;97911.53;;;22.37;22.16
62524;BME280;53689;56.878;60.672;2023-04-06T08:55:22;97915.47;;;22.41;21.95
62524;BME280;53689;56.878;60.672;2023-04-06T08:57:49;97919.22;;;22.40;22.28
62524;BME280;53689;56.878;60.672;2023-04-06T09:00:17;97917.34;;;22.54;22.05
62524;BME280;53689;56.878;60.672;2023-04-06T09:02:45;97915.22;;;22.63;21.63
62524;BME280;53689;56.878;60.672;2023-04-06T09:05:12;97922.66;;;22.74;21.10
62524;BME280;53689;56.878;60.672;2023-04-06T09:07:41;97922.66;;;22.74;21.61
62524;BME280;53689;56.878;60.672;2023-04-06T09:10:08;97933.28;;;22.49;21.95
62524;BME280;53689;56.878;60.672;2023-04-06T09:12:35;97934.94;;;22.56;21.55
62524;BME280;53689;56.878;60.672;2023-04-06T09:15:03;97928.78;;;22.22;22.11
62524;BME280;53689;56.878;60.672;2023-04-06T09:17:31;97933.13;;;22.30;21.83
62524;BME280;53689;56.878;60.672;2023-04-06T09:19:58;97943.94;;;22.23;21.77
62524;BME280;53689;56.878;60.672;2023-04-06T09:22:34;97940.94;;;21.24;23.15
62524;BME280;53689;56.878;60.672;2023-04-06T09:25:04;97937.69;;;21.35;22.80
62524;BME280;53689;56.878;60.672;2023-04-06T09:27:31;97952.66;;;21.92;23.51
62524;BME280;53689;56.878;60.672;2023-04-06T09:30:03;97955.78;;;21.82;22.31
62524;BME280;53689;56.878;60.672;2023-04-06T09:32:31;97960.53;;;22.07;22.03
62524;BME280;53689;56.878;60.672;2023-04-06T09:35:05;97954.50;;;22.31;22.08
62524;BME280;53689;56.878;60.672;2023-04-06T09:37:32;97965.50;;;22.50;22.27
62524;BME280;53689;56.878;60.672;2023-04-06T09:40:02;97968.38;;;22.55;22.98
62524;BME280;53689;56.878;60.672;2023-04-06T09:42:31;97966.94;;;22.39;24.14
62524;BME280;53689;56.878;60.672;2023-04-06T09:44:59;97973.78;;;22.42;22.58
62524;BME280;53689;56.878;60.672;2023-04-06T09:47:26;97981.06;;;22.55;22.77
62524;BME280;53689;56.878;60.672;2023-04-06T09:49:55;97977.06;;;22.71;21.61
62524;BME280;53689;56.878;60.672;2023-04-06T09:52:24;97981.59;;;22.70;21.73
62524;BME280;53689;56.878;60.672;2023-04-06T09:54:53;97983.06;;;22.73;22.02
62524;BME280;53689;56.878;60.672;2023-04-06T09:57:25;97982.59;;;22.90;21.50
62524;BME280;53689;56.878;60.672;2023-04-06T09:59:55;97982.44;;;22.78;21.62
62524;BME280;53689;56.878;60.672;2023-04-06T10:02:27;97987.16;;;22.96;21.14
62524;BME280;53689;56.878;60.672;2023-04-06T10:04:58;97976.97;;;22.98;20.84
62524;BME280;53689;56.878;60.672;2023-04-06T10:07:29;97994.25;;;22.83;21.80
62524;BME280;53689;56.878;60.672;2023-04-06T10:09:56;98002.97;;;22.79;22.01
62524;BME280;53689;56.878;60.672;2023-04-06T10:12:25;97996.53;;;22.80;21.90
62524;BME280;53689;56.878;60.672;2023-04-06T10:14:56;97999.28;;;22.46;21.87
62524;BME280;53689;56.878;60.672;2023-04-06T10:17:23;98003.22;;;22.37;21.82
62524;BME280;53689;56.878;60.672;2023-04-06T10:19:52;98005.75;;;22.04;21.72
62524;BME280;53689;56.878;60.672;2023-04-06T10:22:22;98009.06;;;22.27;21.37
62524;BME280;53689;56.878;60.672;2023-04-06T10:24:51;98007.97;;;22.68;21.02
62524;BME280;53689;56.878;60.672;2023-04-06T10:27:27;98013.16;;;22.77;20.96
62524;BME280;53689;56.878;60.672;2023-04-06T10:30:00;98016.88;;;22.82;21.14
62524;BME280;53689;56.878;60.672;2023-04-06T10:32:37;98023.56;;;22.46;21.04
62524;BME280;53689;56.878;60.672;2023-04-06T10:35:05;98018.59;;;22.23;21.28
62524;BME280;53689;56.878;60.672;2023-04-06T10:37:45;98018.41;;;22.11;21.87
62524;BME280;53689;56.878;60.672;2023-04-06T10:40:17;98017.78;;;22.49;21.51
62524;BME280;53689;56.878;60.672;2023-04-06T10:42:45;98020.22;;;22.71;21.14
62524;BME280;53689;56.878;60.672;2023-04-06T10:45:20;98025.41;;;22.79;21.31
62524;BME280;53689;56.878;60.672;2023-04-06T10:47:47;98014.19;;;22.76;22.37
62524;BME280;53689;56.878;60.672;2023-04-06T10:50:15;98020.63;;;22.81;21.44
62524;BME280;53689;56.878;60.672;2023-04-06T10:52:43;98027.31;;;22.65;21.54
62524;BME280;53689;56.878;60.672;2023-04-06T10:55:10;98030.59;;;22.47;21.78
62524;BME280;53689;56.878;60.672;2023-04-06T10:57:39;98028.78;;;22.54;21.62
62524;BME280;53689;56.878;60.672;2023-04-06T11:00:07;98030.75;;;22.93;21.59
62524;BME280;53689;56.878;60.672;2023-04-06T11:02:39;98035.50;;;23.04;20.91
62524;BME280;53689;56.878;60.672;2023-04-06T11:05:07;98045.03;;;23.07;21.06
62524;BME280;53689;56.878;60.672;2023-04-06T11:07:34;98047.19;;;22.84;21.62
62524;BME280;53689;56.878;60.672;2023-04-06T11:10:01;98048.16;;;23.10;21.13
62524;BME280;53689;56.878;60.672;2023-04-06T11:12:31;98048.75;;;23.12;21.11
62524;BME280;53689;56.878;60.672;2023-04-06T11:14:59;98053.75;;;23.16;20.46
62524;BME280;53689;56.878;60.672;2023-04-06T11:17:26;98048.75;;;23.12;20.52
62524;BME280;53689;56.878;60.672;2023-04-06T11:19:55;98060.59;;;23.11;20.48
62524;BME280;53689;56.878;60.672;2023-04-06T11:22:23;98064.13;;;23.19;20.62
62524;BME280;53689;56.878;60.672;2023-04-06T11:24:50;98052.47;;;23.18;20.25
62524;BME280;53689;56.878;60.672;2023-04-06T11:27:17;98063.03;;;23.26;20.30
62524;BME280;53689;56.878;60.672;2023-04-06T11:29:45;98063.47;;;23.23;19.91
62524;BME280;53689;56.878;60.672;2023-04-06T11:32:19;98070.53;;;23.31;19.81
62524;BME280;53689;56.878;60.672;2023-04-06T11:34:46;98075.75;;;23.33;26.68
62524;BME280;53689;56.878;60.672;2023-04-06T11:37:15;98085.50;;;23.27;22.26
62524;BME280;53689;56.878;60.672;2023-04-06T11:39:43;98083.59;;;23.27;21.72
62524;BME280;53689;56.878;60.672;2023-04-06T11:42:20;98089.25;;;23.26;21.73
62524;BME280;53689;56.878;60.672;2023-04-06T11:44:49;98091.09;;;23.32;20.67
62524;BME280;53689;56.878;60.672;2023-04-06T11:47:16;98096.72;;;23.37;21.62
62524;BME280;53689;56.878;60.672;2023-04-06T11:49:43;98094.81;;;23.38;21.36
62524;BME280;53689;56.878;60.672;2023-04-06T11:52:16;98094.81;;;23.38;20.73
62524;BME280;53689;56.878;60.672;2023-04-06T11:54:43;98095.00;;;23.43;21.22
62524;BME280;53689;56.878;60.672;2023-04-06T11:57:11;98104.81;;;23.37;21.41
62524;BME280;53689;56.878;60.672;2023-04-06T11:59:38;98103.16;;;23.36;21.58
62524;BME280;53689;56.878;60.672;2023-04-06T12:02:05;98112.91;;;23.37;21.74
62524;BME280;53689;56.878;60.672;2023-04-06T12:04:34;98110.22;;;23.37;22.39
62524;BME280;53689;56.878;60.672;2023-04-06T12:07:02;98118.94;;;23.39;22.01
62524;BME280;53689;56.878;60.672;2023-04-06T12:09:32;98114.78;;;23.37;21.96
62524;BME280;53689;56.878;60.672;2023-04-06T12:12:01;98114.78;;;23.37;22.68
62524;BME280;53689;56.878;60.672;2023-04-06T12:14:29;98118.31;;;23.37;21.83
62524;BME280;53689;56.878;60.672;2023-04-06T12:16:56;98120.59;;;23.40;21.97
62524;BME280;53689;56.878;60.672;2023-04-06T12:19:23;98121.63;;;23.39;21.80
62524;BME280;53689;56.878;60.672;2023-04-06T12:21:51;98130.56;;;23.40;21.18
62524;BME280;53689;56.878;60.672;2023-04-06T12:24:18;98141.78;;;23.37;22.00
62524;BME280;53689;56.878;60.672;2023-04-06T12:26:47;98139.72;;;23.39;22.05
62524;BME280;53689;56.878;60.672;2023-04-06T12:29:19;98137.03;;;23.39;21.46
62524;BME280;53689;56.878;60.672;2023-04-06T12:31:46;98144.50;;;23.44;21.60
62524;BME280;53689;56.878;60.672;2023-04-06T12:34:13;98142.81;;;23.42;20.45
62524;BME280;53689;56.878;60.672;2023-04-06T12:36:41;98151.75;;;23.43;21.39
62524;BME280;53689;56.878;60.672;2023-04-06T12:39:08;98161.72;;;23.42;21.43
62524;BME280;53689;56.878;60.672;2023-04-06T12:41:35;98162.34;;;23.45;22.04
62524;BME280;53689;56.878;60.672;2023-04-06T12:44:04;98158.81;;;23.44;21.84
62524;BME280;53689;56.878;60.672;2023-04-06T12:46:31;98155.50;;;23.42;22.02
62524;BME280;53689;56.878;60.672;2023-04-06T12:48:58;98165.47;;;23.41;21.59
62524;BME280;53689;56.878;60.672;2023-04-06T12:51:27;98172.53;;;23.42;21.54
62524;BME280;53689;56.878;60.672;2023-04-06T12:53:54;98167.97;;;23.43;21.14
62524;BME280;53689;56.878;60.672;2023-04-06T12:56:21;98170.47;;;23.45;21.63
62524;BME280;53689;56.878;60.672;2023-04-06T12:58:50;98179.63;;;23.44;21.23
62524;BME280;53689;56.878;60.672;2023-04-06T13:01:19;98179.63;;;23.44;21.83